Ferry Bizan — JD3924 — position and weather

sailwx.info

Track history (hours):
 
Tides and Currents Weather Stations Pressure Air Temp Water Temp Dewpoint Dewpoint Depression Visibility Wind Speed Wind Dir Waves Ship Positions

Ferry Bizan

Last reported at 2018-Jun-24 20:32 UTC. Time now 2018-Jun-24 22:24 UTC.
Position N 35°37' E 139°48'.

Length 191 m; draft 6.5 m.

Type: Passenger vessel. MMSI: 431007129.

Date/timePositionNaut miles runAvg speedWind from/ knotsBaromVisibWave heightAir tempDewpointWater temp
2018-Jun-24 20:32N 35°37' E 139°48'0 0.2
2018-Jun-24 20:28N 35°37' E 139°48'611.0
2018-Jun-24 19:56N 35°32' E 139°52'817.9
2018-Jun-24 19:31N 35°25' E 139°48'713.1
2018-Jun-24 19:01N 35°19' E 139°44'611.9
2018-Jun-24 18:31N 35°14' E 139°47'917.6
2018-Jun-24 18:00N 35°05' E 139°45'1019.5
2018-Jun-24 17:30N 34°59' E 139°35'1121.0
2018-Jun-24 17:00N 34°54' E 139°24'22218.3
2018-Jun-24 04:52N 33°34' E 135°14'819.3
2018-Jun-24 04:28N 33°39' E 135°07'919.4
2018-Jun-24 04:00N 33°46' E 134°59'1019.3
2018-Jun-24 03:29N 33°53' E 134°51'1519.8
2018-Jun-24 02:43N 34°03' E 134°37'1 0.5
2018-Jun-24 00:23N 34°03' E 134°36'715.2
2018-Jun-23 23:57N 33°60' E 134°43'1018.3
2018-Jun-23 23:24N 33°52' E 134°50'917.2
2018-Jun-23 22:51N 33°43' E 134°45'7 0.2
2018-Jun-22 07:16N 33°38' E 134°40'519.1
2018-Jun-22 07:00N 33°42' E 134°44'918.7
2018-Jun-22 06:30N 33°50' E 134°51'1018.2
2018-Jun-22 05:59N 33°58' E 134°44'917.4
2018-Jun-22 05:29N 34°03' E 134°36'0 0.1
2018-Jun-22 03:57N 34°03' E 134°36'916.7
2018-Jun-22 03:27N 33°58' E 134°45'1021.2
2018-Jun-22 02:59N 33°52' E 134°54'1020.8
2018-Jun-22 02:30N 33°46' E 135°03'23318.1
2018-Jun-21 13:37N 34°59' E 139°30'320.6
2018-Jun-21 13:29N 35°01' E 139°33'1019.9
2018-Jun-21 13:00N 35°07' E 139°43'816.6
2018-Jun-21 12:30N 35°14' E 139°46'611.5
2018-Jun-21 12:00N 35°19' E 139°43'714.5
2018-Jun-21 11:30N 35°26' E 139°46'816.4
2018-Jun-21 11:00N 35°33' E 139°51'5 0.3
2018-Jun-20 20:37N 35°37' E 139°48'0 0.0
2018-Jun-20 20:30N 35°37' E 139°48'5 9.4
2018-Jun-20 20:00N 35°33' E 139°52'817.0
2018-Jun-20 19:30N 35°25' E 139°48'713.1
2018-Jun-20 19:00N 35°20' E 139°44'611.6
2018-Jun-20 18:30N 35°14' E 139°47'815.5
2018-Jun-20 18:00N 35°07' E 139°46'24418.5
2018-Jun-20 04:49N 33°36' E 135°12'619.6
2018-Jun-20 04:30N 33°40' E 135°06'1019.1
2018-Jun-20 04:00N 33°46' E 134°58'1119.8
2018-Jun-20 03:28N 33°54' E 134°49'1220.3
2018-Jun-20 02:53N 34°03' E 134°39'3 1.0
2018-Jun-20 00:18N 34°03' E 134°36'714.6
2018-Jun-19 23:51N 33°59' E 134°42'818.2
2018-Jun-19 23:25N 33°54' E 134°49'1215.8
2018-Jun-19 22:41N 33°43' E 134°45'  
2018-Jun-16 07:53N 33°42' E 134°43'1217.8
2018-Jun-16 07:10N 33°54' E 134°49'13 5.6
2018-Jun-16 04:47N 34°03' E 134°37'618.5
2018-Jun-16 04:28N 33°60' E 134°43'920.0
2018-Jun-16 04:00N 33°54' E 134°51'1019.8
2018-Jun-16 03:30N 33°48' E 135°01'1219.4
2018-Jun-16 02:53N 33°40' E 135°12'23017.2
2018-Jun-15 13:29N 35°01' E 139°33'919.0
2018-Jun-15 13:00N 35°07' E 139°42'817.3
2018-Jun-15 12:30N 35°14' E 139°46'612.8
2018-Jun-15 12:00N 35°20' E 139°42'815.8
2018-Jun-15 11:30N 35°27' E 139°47'816.8
2018-Jun-15 11:00N 35°34' E 139°51'4 0.3
2018-Jun-14 20:41N 35°37' E 139°48'  
Track history (hours):
 
Tides and Currents Weather Stations Pressure Air Temp Water Temp Dewpoint Dewpoint Depression Visibility Wind Speed Wind Dir Waves Ship Positions

Ferry Bizan

Last reported at 2018-Jun-24 20:32 UTC. Time now 2018-Jun-24 22:24 UTC.
Position N 35°37' E 139°48'.

Length 191 m; draft 6.5 m.

Type: Passenger vessel. MMSI: 431007129.

Date/timePositionNaut miles runAvg speedWind from/ knotsBaromVisibWave heightAir tempDewpointWater temp
2018-Jun-24 20:32N 35°37' E 139°48'0 0.2
2018-Jun-24 20:28N 35°37' E 139°48'611.0
2018-Jun-24 19:56N 35°32' E 139°52'817.9
2018-Jun-24 19:31N 35°25' E 139°48'713.1
2018-Jun-24 19:01N 35°19' E 139°44'611.9
2018-Jun-24 18:31N 35°14' E 139°47'917.6
2018-Jun-24 18:00N 35°05' E 139°45'1019.5
2018-Jun-24 17:30N 34°59' E 139°35'1121.0
2018-Jun-24 17:00N 34°54' E 139°24'22218.3
2018-Jun-24 04:52N 33°34' E 135°14'819.3
2018-Jun-24 04:28N 33°39' E 135°07'919.4
2018-Jun-24 04:00N 33°46' E 134°59'1019.3
2018-Jun-24 03:29N 33°53' E 134°51'1519.8
2018-Jun-24 02:43N 34°03' E 134°37'1 0.5
2018-Jun-24 00:23N 34°03' E 134°36'715.2
2018-Jun-23 23:57N 33°60' E 134°43'1018.3
2018-Jun-23 23:24N 33°52' E 134°50'917.2
2018-Jun-23 22:51N 33°43' E 134°45'7 0.2
2018-Jun-22 07:16N 33°38' E 134°40'519.1
2018-Jun-22 07:00N 33°42' E 134°44'918.7
2018-Jun-22 06:30N 33°50' E 134°51'1018.2
2018-Jun-22 05:59N 33°58' E 134°44'917.4
2018-Jun-22 05:29N 34°03' E 134°36'0 0.1
2018-Jun-22 03:57N 34°03' E 134°36'916.7
2018-Jun-22 03:27N 33°58' E 134°45'1021.2
2018-Jun-22 02:59N 33°52' E 134°54'1020.8
2018-Jun-22 02:30N 33°46' E 135°03'23318.1
2018-Jun-21 13:37N 34°59' E 139°30'320.6
2018-Jun-21 13:29N 35°01' E 139°33'1019.9
2018-Jun-21 13:00N 35°07' E 139°43'816.6
2018-Jun-21 12:30N 35°14' E 139°46'611.5
2018-Jun-21 12:00N 35°19' E 139°43'714.5
2018-Jun-21 11:30N 35°26' E 139°46'816.4
2018-Jun-21 11:00N 35°33' E 139°51'5 0.3
2018-Jun-20 20:37N 35°37' E 139°48'0 0.0
2018-Jun-20 20:30N 35°37' E 139°48'5 9.4
2018-Jun-20 20:00N 35°33' E 139°52'817.0
2018-Jun-20 19:30N 35°25' E 139°48'713.1
2018-Jun-20 19:00N 35°20' E 139°44'611.6
2018-Jun-20 18:30N 35°14' E 139°47'815.5
2018-Jun-20 18:00N 35°07' E 139°46'24418.5
2018-Jun-20 04:49N 33°36' E 135°12'619.6
2018-Jun-20 04:30N 33°40' E 135°06'1019.1
2018-Jun-20 04:00N 33°46' E 134°58'1119.8
2018-Jun-20 03:28N 33°54' E 134°49'1220.3
2018-Jun-20 02:53N 34°03' E 134°39'3 1.0
2018-Jun-20 00:18N 34°03' E 134°36'714.6
2018-Jun-19 23:51N 33°59' E 134°42'818.2
2018-Jun-19 23:25N 33°54' E 134°49'1215.8
2018-Jun-19 22:41N 33°43' E 134°45'  
2018-Jun-16 07:53N 33°42' E 134°43'1217.8
2018-Jun-16 07:10N 33°54' E 134°49'13 5.6
2018-Jun-16 04:47N 34°03' E 134°37'618.5
2018-Jun-16 04:28N 33°60' E 134°43'920.0
2018-Jun-16 04:00N 33°54' E 134°51'1019.8
2018-Jun-16 03:30N 33°48' E 135°01'1219.4
2018-Jun-16 02:53N 33°40' E 135°12'23017.2
2018-Jun-15 13:29N 35°01' E 139°33'919.0
2018-Jun-15 13:00N 35°07' E 139°42'817.3
2018-Jun-15 12:30N 35°14' E 139°46'612.8
2018-Jun-15 12:00N 35°20' E 139°42'815.8
2018-Jun-15 11:30N 35°27' E 139°47'816.8
2018-Jun-15 11:00N 35°34' E 139°51'4 0.3
2018-Jun-14 20:41N 35°37' E 139°48'  

Dump ship's entire track history